Time;durP1;ratioP1;P1;durP2;ratioP2;P2;SDS_P1;SDS_P2;PMS_P1;PMS_P2;Temp;Humidity;BMP_temperature;BMP_pressure;BME280_temperature;BME280_humidity;BME280_pressure;Samples;Min_cycle;Max_cycle;Signal;HPM_P1;HPM_P2
2021/05/19 00:01:24;;;;;;;4.68;1.10;;;;;;;;;;5064742;28;20032;-52
2021/05/19 00:03:51;;;;;;;3.67;1.55;;;;;;;;;;5059815;28;20040;-55
2021/05/19 00:06:18;;;;;;;8.40;2.63;;;;;;;;;;5059923;28;20033;-55
2021/05/19 00:08:44;;;;;;;2.65;1.85;;;;;;;;;;5054862;28;20033;-55
2021/05/19 00:11:11;;;;;;;6.53;2.45;;;;;;;;;;5054561;28;20057;-55
2021/05/19 00:13:38;;;;;;;6.28;1.85;;;;;;;;;;5061070;28;20039;-55
2021/05/19 00:16:08;;;;;;;4.70;1.65;;;;;;;;;;5050267;28;20033;-56
2021/05/19 00:18:35;;;;;;;7.35;2.47;;;;;;;;;;5061714;28;20477;-55
2021/05/19 00:21:03;;;;;;;7.03;1.58;;;;;;;;;;5063913;28;20037;-54
2021/05/19 00:23:30;;;;;;;3.78;1.80;;;;;;;;;;5053760;28;20040;-54
2021/05/19 00:25:57;;;;;;;2.80;1.67;;;;;;;;;;5065367;28;20130;-55
2021/05/19 00:28:24;;;;;;;2.63;1.73;;;;;;;;;;5064479;28;20094;-55
2021/05/19 00:30:56;;;;;;;5.03;1.83;;;;;;;;;;5069489;28;20315;-55
2021/05/19 00:33:24;;;;;;;3.97;1.85;;;;;;;;;;5067093;28;20066;-55
2021/05/19 00:35:51;;;;;;;9.30;2.28;;;;;;;;;;5069488;28;20040;-55
2021/05/19 00:38:18;;;;;;;4.57;1.90;;;;;;;;;;5065283;28;20051;-56
2021/05/19 00:40:46;;;;;;;3.28;1.65;;;;;;;;;;5064556;28;20045;-55
2021/05/19 00:43:13;;;;;;;5.63;1.85;;;;;;;;;;5057081;28;20107;-53
2021/05/19 00:45:39;;;;;;;5.05;2.10;;;;;;;;;;5059073;28;20040;-53
2021/05/19 00:48:07;;;;;;;9.07;2.13;;;;;;;;;;5068942;28;20526;-55
2021/05/19 00:50:34;;;;;;;9.38;2.63;;;;;;;;;;5058817;28;20036;-55
2021/05/19 00:53:00;;;;;;;7.90;2.33;;;;;;;;;;5056168;28;20507;-55
2021/05/19 00:55:27;;;;;;;4.75;1.60;;;;;;;;;;5057673;28;20410;-53
2021/05/19 00:57:55;;;;;;;4.15;2.60;;;;;;;;;;5063189;28;20044;-55
2021/05/19 01:00:23;;;;;;;5.40;2.33;;;;;;;;;;5052209;28;20469;-55
2021/05/19 01:02:50;;;;;;;11.18;2.63;;;;;;;;;;5063818;28;20037;-54
2021/05/19 01:05:23;;;;;;;5.45;1.75;;;;;;;;;;5058686;28;20029;-54
2021/05/19 01:10:43;;;;;;;2.75;1.65;;;;;;;;;;5048152;28;20037;-56
2021/05/19 01:13:10;;;;;;;4.47;2.33;;;;;;;;;;5060478;28;20481;-53
2021/05/19 01:15:37;;;;;;;8.07;2.10;;;;;;;;;;5058434;28;20041;-56
2021/05/19 01:18:04;;;;;;;6.68;1.60;;;;;;;;;;5064990;28;20037;-56
2021/05/19 01:20:32;;;;;;;6.38;2.00;;;;;;;;;;5066414;28;20396;-54
2021/05/19 01:22:59;;;;;;;4.53;2.20;;;;;;;;;;5062972;28;20424;-56
2021/05/19 01:25:26;;;;;;;6.97;2.10;;;;;;;;;;5058865;28;20029;-55
2021/05/19 01:27:54;;;;;;;3.50;1.98;;;;;;;;;;5072067;28;20036;-54
2021/05/19 01:30:21;;;;;;;6.75;2.15;;;;;;;;;;5067775;28;20657;-55
2021/05/19 01:32:48;;;;;;;5.97;2.33;;;;;;;;;;5067439;28;20052;-51
2021/05/19 01:35:15;;;;;;;5.95;2.00;;;;;;;;;;5063161;28;20488;-55
2021/05/19 01:37:42;;;;;;;3.53;1.63;;;;;;;;;;5060420;28;20048;-54
2021/05/19 01:40:10;;;;;;;7.40;1.73;;;;;;;;;;5068289;28;20492;-55
2021/05/19 01:42:36;;;;;;;3.05;2.33;;;;;;;;;;5065064;28;20036;-55
2021/05/19 01:45:03;;;;;;;8.70;3.10;;;;;;;;;;5065318;28;20068;-53
2021/05/19 01:47:45;;;;;;;5.80;2.00;;;;;;;;;;5066691;28;20029;-54
2021/05/19 01:50:13;;;;;;;6.03;3.65;;;;;;;;;;5063405;28;20439;-55
2021/05/19 01:52:41;;;;;;;5.43;1.80;;;;;;;;;;5069830;28;20119;-54
2021/05/19 01:55:09;;;;;;;6.22;2.42;;;;;;;;;;5069461;28;20052;-54
2021/05/19 01:57:35;;;;;;;3.95;2.15;;;;;;;;;;5070288;28;20063;-53
2021/05/19 02:00:04;;;;;;;7.35;1.63;;;;;;;;;;5067126;28;20047;-55
2021/05/19 02:02:31;;;;;;;8.63;2.38;;;;;;;;;;5063488;28;20477;-54
2021/05/19 02:04:58;;;;;;;5.40;2.08;;;;;;;;;;5069698;28;20381;-56
2021/05/19 02:07:26;;;;;;;5.57;1.75;;;;;;;;;;5061896;28;20037;-54
2021/05/19 02:09:52;;;;;;;7.38;2.20;;;;;;;;;;5066850;28;20048;-56
2021/05/19 02:12:19;;;;;;;4.85;1.92;;;;;;;;;;5070707;28;20036;-55
2021/05/19 02:14:46;;;;;;;7.97;2.35;;;;;;;;;;5067901;28;20123;-55
2021/05/19 02:17:13;;;;;;;3.22;2.33;;;;;;;;;;5061443;28;20504;-55
2021/05/19 02:19:40;;;;;;;8.98;2.72;;;;;;;;;;5060505;28;20388;-53
2021/05/19 02:22:07;;;;;;;10.73;2.72;;;;;;;;;;5061258;28;20040;-54
2021/05/19 02:24:33;;;;;;;2.10;1.70;;;;;;;;;;5070279;28;20041;-54
2021/05/19 02:27:00;;;;;;;10.70;2.60;;;;;;;;;;5065734;28;20397;-55
2021/05/19 02:29:27;;;;;;;6.32;1.95;;;;;;;;;;5068625;28;20048;-55
2021/05/19 02:31:53;;;;;;;6.60;2.03;;;;;;;;;;5059687;28;20079;-55
2021/05/19 02:34:20;;;;;;;5.05;2.65;;;;;;;;;;5060545;28;20036;-55
2021/05/19 02:36:47;;;;;;;5.72;2.50;;;;;;;;;;5052739;28;20033;-56
2021/05/19 02:39:13;;;;;;;4.70;2.60;;;;;;;;;;5065780;28;20040;-52
2021/05/19 02:41:41;;;;;;;5.10;2.17;;;;;;;;;;5057886;28;20474;-55
2021/05/19 02:44:08;;;;;;;6.75;2.05;;;;;;;;;;5059507;28;20083;-55
2021/05/19 02:46:35;;;;;;;10.70;2.92;;;;;;;;;;5062346;28;20037;-55
2021/05/19 02:49:02;;;;;;;7.93;2.78;;;;;;;;;;5058809;28;20095;-55
2021/05/19 02:51:30;;;;;;;7.60;2.13;;;;;;;;;;5062731;28;20090;-55
2021/05/19 02:53:57;;;;;;;2.35;1.60;;;;;;;;;;5064882;28;20036;-55
2021/05/19 02:56:24;;;;;;;2.55;2.25;;;;;;;;;;5068923;28;20093;-55
2021/05/19 02:58:51;;;;;;;4.25;1.95;;;;;;;;;;5067933;28;20044;-52
2021/05/19 03:01:18;;;;;;;4.50;1.90;;;;;;;;;;5049954;28;20037;-55
2021/05/19 03:03:44;;;;;;;5.32;1.92;;;;;;;;;;5068355;28;20037;-52
2021/05/19 03:06:11;;;;;;;6.18;2.20;;;;;;;;;;5055842;28;20041;-55
2021/05/19 03:08:38;;;;;;;4.15;2.17;;;;;;;;;;5069413;28;20106;-55
2021/05/19 03:11:05;;;;;;;5.80;2.13;;;;;;;;;;5066033;28;20051;-55
2021/05/19 03:13:33;;;;;;;4.38;1.92;;;;;;;;;;5069315;28;20048;-55
2021/05/19 03:15:59;;;;;;;9.30;2.20;;;;;;;;;;5062150;28;20059;-52
2021/05/19 03:18:26;;;;;;;3.75;1.95;;;;;;;;;;5060027;28;20396;-54
2021/05/19 03:20:53;;;;;;;3.30;1.70;;;;;;;;;;5058982;28;20045;-54
2021/05/19 03:23:20;;;;;;;4.03;2.03;;;;;;;;;;5062528;28;20041;-53
2021/05/19 03:25:46;;;;;;;3.90;2.38;;;;;;;;;;5068963;28;20045;-54
2021/05/19 03:28:16;;;;;;;2.00;1.58;;;;;;;;;;5067179;28;20041;-55
2021/05/19 03:30:44;;;;;;;7.63;1.73;;;;;;;;;;5065673;28;20044;-54
2021/05/19 03:33:10;;;;;;;8.65;3.08;;;;;;;;;;5063396;28;20082;-54
2021/05/19 03:35:37;;;;;;;5.47;1.80;;;;;;;;;;5066840;28;20036;-53
2021/05/19 03:38:04;;;;;;;6.45;2.10;;;;;;;;;;5055266;28;20489;-55
2021/05/19 03:40:31;;;;;;;9.13;2.67;;;;;;;;;;5069331;28;20131;-54
2021/05/19 03:42:59;;;;;;;6.07;2.40;;;;;;;;;;5067320;28;20074;-54
2021/05/19 03:45:25;;;;;;;5.55;2.50;;;;;;;;;;5066897;28;20076;-54
2021/05/19 03:47:53;;;;;;;9.15;2.00;;;;;;;;;;5062984;28;20037;-54
2021/05/19 03:50:24;;;;;;;5.50;2.35;;;;;;;;;;5056990;28;20039;-54
2021/05/19 03:52:52;;;;;;;11.45;2.45;;;;;;;;;;5054547;28;20041;-54
2021/05/19 03:55:19;;;;;;;2.83;2.55;;;;;;;;;;5061326;28;20430;-54
2021/05/19 03:57:45;;;;;;;8.93;2.33;;;;;;;;;;5050284;28;20037;-54
2021/05/19 04:00:14;;;;;;;6.68;2.17;;;;;;;;;;5068079;28;20558;-55
2021/05/19 04:02:40;;;;;;;8.10;2.28;;;;;;;;;;5061713;28;20111;-55
2021/05/19 04:05:08;;;;;;;10.93;2.33;;;;;;;;;;5069182;28;20037;-55
2021/05/19 04:07:34;;;;;;;9.05;3.20;;;;;;;;;;5064687;28;20424;-55
2021/05/19 04:10:02;;;;;;;8.73;2.28;;;;;;;;;;5050910;28;20049;-55
2021/05/19 04:12:28;;;;;;;7.97;2.42;;;;;;;;;;5066550;28;20041;-55
2021/05/19 04:14:55;;;;;;;9.88;2.85;;;;;;;;;;5067269;28;20105;-55
2021/05/19 04:17:22;;;;;;;6.95;2.83;;;;;;;;;;5066729;28;20052;-53
2021/05/19 04:19:49;;;;;;;3.75;2.67;;;;;;;;;;5061602;28;20564;-53
2021/05/19 04:22:15;;;;;;;7.22;2.90;;;;;;;;;;5052899;28;20451;-55
2021/05/19 04:24:43;;;;;;;10.48;2.45;;;;;;;;;;5069195;28;20119;-55
2021/05/19 04:27:10;;;;;;;9.40;2.90;;;;;;;;;;5064396;28;20386;-55
2021/05/19 04:29:36;;;;;;;4.97;2.10;;;;;;;;;;5062766;28;20037;-53
2021/05/19 04:32:03;;;;;;;4.85;2.00;;;;;;;;;;5061863;28;20474;-55
2021/05/19 04:34:30;;;;;;;4.60;1.90;;;;;;;;;;5054401;28;20628;-54
2021/05/19 04:36:57;;;;;;;5.88;1.95;;;;;;;;;;5061176;28;20389;-54
2021/05/19 04:39:24;;;;;;;5.43;1.98;;;;;;;;;;5063665;28;20028;-53
2021/05/19 04:41:51;;;;;;;5.88;2.30;;;;;;;;;;5063223;28;20033;-55
2021/05/19 04:44:18;;;;;;;4.13;2.83;;;;;;;;;;5066536;28;20075;-54
2021/05/19 04:46:45;;;;;;;2.95;1.55;;;;;;;;;;5059645;28;20536;-54
2021/05/19 04:49:12;;;;;;;7.00;2.28;;;;;;;;;;5062628;28;20098;-55
2021/05/19 04:51:39;;;;;;;4.85;1.40;;;;;;;;;;5070590;28;20032;-54
2021/05/19 04:54:07;;;;;;;7.05;1.73;;;;;;;;;;5065088;28;20540;-54
2021/05/19 04:56:34;;;;;;;7.15;1.85;;;;;;;;;;5065107;28;20489;-53
2021/05/19 04:59:01;;;;;;;4.72;1.63;;;;;;;;;;5055541;28;20041;-54
2021/05/19 05:01:27;;;;;;;5.35;1.25;;;;;;;;;;5070788;28;20039;-55
2021/05/19 05:03:54;;;;;;;6.70;1.73;;;;;;;;;;5061287;28;20548;-54
2021/05/19 05:06:21;;;;;;;3.55;2.15;;;;;;;;;;5058356;28;20040;-55
2021/05/19 05:08:48;;;;;;;5.55;1.88;;;;;;;;;;5063587;28;20045;-54
2021/05/19 05:11:15;;;;;;;3.70;1.67;;;;;;;;;;5053307;28;20401;-54
2021/05/19 05:13:41;;;;;;;7.07;1.92;;;;;;;;;;5069467;28;20135;-54
2021/05/19 05:16:08;;;;;;;1.58;1.45;;;;;;;;;;5064269;28;20461;-54
2021/05/19 05:18:39;;;;;;;2.75;2.20;;;;;;;;;;5058976;28;20102;-55
2021/05/19 05:21:06;;;;;;;4.03;1.38;;;;;;;;;;5063754;28;20029;-54
2021/05/19 05:23:33;;;;;;;4.93;1.88;;;;;;;;;;5053948;28;20044;-55
2021/05/19 05:26:01;;;;;;;3.72;1.45;;;;;;;;;;5065589;28;20048;-54
2021/05/19 05:28:28;;;;;;;6.00;2.47;;;;;;;;;;5062834;28;20567;-56
2021/05/19 05:30:55;;;;;;;5.78;2.38;;;;;;;;;;5067132;28;20041;-56
2021/05/19 05:33:22;;;;;;;7.57;2.25;;;;;;;;;;5061577;28;20042;-56
2021/05/19 05:35:49;;;;;;;5.88;2.13;;;;;;;;;;5058251;28;20591;-55
2021/05/19 05:38:16;;;;;;;6.88;1.85;;;;;;;;;;5065079;28;20041;-54
2021/05/19 05:40:43;;;;;;;6.82;1.95;;;;;;;;;;5064658;28;20037;-53
2021/05/19 05:43:10;;;;;;;6.75;1.95;;;;;;;;;;5071283;28;20094;-54
2021/05/19 05:45:36;;;;;;;2.95;1.60;;;;;;;;;;5060359;28;20095;-53
2021/05/19 05:48:03;;;;;;;12.45;1.70;;;;;;;;;;5071025;28;20055;-55
2021/05/19 05:50:30;;;;;;;3.63;1.77;;;;;;;;;;5067255;28;20400;-56
2021/05/19 05:52:57;;;;;;;6.68;1.70;;;;;;;;;;5052904;28;20040;-54
2021/05/19 05:55:24;;;;;;;2.95;1.10;;;;;;;;;;5070039;28;20043;-56
2021/05/19 05:57:51;;;;;;;4.78;1.50;;;;;;;;;;5061277;28;20068;-56
2021/05/19 06:00:19;;;;;;;1.55;1.45;;;;;;;;;;5062297;28;20417;-55
2021/05/19 06:02:45;;;;;;;2.08;1.52;;;;;;;;;;5061435;28;20116;-55
2021/05/19 06:05:12;;;;;;;4.00;1.85;;;;;;;;;;5069204;28;20036;-56
2021/05/19 06:07:39;;;;;;;2.80;1.30;;;;;;;;;;5069078;28;20373;-56
2021/05/19 06:10:07;;;;;;;1.85;1.20;;;;;;;;;;5065893;28;20029;-55
2021/05/19 06:12:34;;;;;;;3.00;1.33;;;;;;;;;;5065042;28;20037;-56
2021/05/19 06:15:02;;;;;;;3.75;1.67;;;;;;;;;;5062028;28;20057;-55
2021/05/19 06:17:29;;;;;;;3.60;1.13;;;;;;;;;;5071486;28;20029;-50
2021/05/19 06:19:56;;;;;;;2.85;1.80;;;;;;;;;;5068743;28;20746;-55
2021/05/19 06:22:23;;;;;;;4.35;1.40;;;;;;;;;;5065266;28;20044;-54
2021/05/19 06:24:49;;;;;;;2.60;1.10;;;;;;;;;;5068888;28;20052;-55
2021/05/19 06:27:16;;;;;;;1.48;1.35;;;;;;;;;;5058027;28;20028;-55
2021/05/19 06:29:44;;;;;;;1.40;1.30;;;;;;;;;;5056778;28;20091;-53
2021/05/19 06:32:11;;;;;;;1.10;1.05;;;;;;;;;;5061905;28;20123;-54
2021/05/19 06:34:38;;;;;;;3.38;1.10;;;;;;;;;;5068609;28;20067;-54
2021/05/19 06:37:05;;;;;;;4.15;1.20;;;;;;;;;;5069238;28;20881;-56
2021/05/19 06:39:32;;;;;;;9.85;2.65;;;;;;;;;;5058393;28;20037;-54
2021/05/19 06:41:59;;;;;;;1.35;1.10;;;;;;;;;;5067510;28;20548;-55
2021/05/19 06:44:26;;;;;;;7.10;1.48;;;;;;;;;;5068520;28;20045;-55
2021/05/19 06:46:52;;;;;;;3.97;1.00;;;;;;;;;;5053474;28;20127;-55
2021/05/19 06:49:19;;;;;;;2.97;1.10;;;;;;;;;;5067928;28;20040;-56
2021/05/19 06:51:46;;;;;;;2.55;1.00;;;;;;;;;;5063322;28;20047;-52
2021/05/19 06:54:13;;;;;;;5.07;1.10;;;;;;;;;;5059980;28;20044;-54
2021/05/19 06:56:45;;;;;;;1.95;0.90;;;;;;;;;;5058800;28;20481;-54
2021/05/19 06:59:13;;;;;;;3.10;1.00;;;;;;;;;;5070495;28;20090;-55
2021/05/19 07:01:40;;;;;;;3.55;1.13;;;;;;;;;;5067653;28;20439;-53
2021/05/19 07:04:07;;;;;;;1.42;1.00;;;;;;;;;;5055302;28;20119;-55
2021/05/19 07:06:34;;;;;;;1.65;1.00;;;;;;;;;;5065383;28;20037;-55
2021/05/19 07:09:01;;;;;;;1.10;1.00;;;;;;;;;;5058433;28;20044;-53
2021/05/19 07:11:28;;;;;;;1.10;0.82;;;;;;;;;;5068627;28;20102;-53
2021/05/19 07:13:56;;;;;;;1.25;1.23;;;;;;;;;;5064862;28;20045;-54
2021/05/19 07:16:24;;;;;;;0.90;0.90;;;;;;;;;;5065668;28;20072;-55
2021/05/19 07:18:53;;;;;;;1.55;1.00;;;;;;;;;;5061708;28;20037;-54
2021/05/19 07:21:20;;;;;;;1.00;0.90;;;;;;;;;;5056616;28;20024;-55
2021/05/19 07:23:47;;;;;;;0.90;0.90;;;;;;;;;;5069748;28;20041;-55
2021/05/19 07:26:14;;;;;;;1.33;1.02;;;;;;;;;;5065001;28;20036;-54
2021/05/19 07:28:41;;;;;;;3.25;1.00;;;;;;;;;;5051518;28;20124;-55
2021/05/19 07:31:07;;;;;;;0.90;0.90;;;;;;;;;;5067869;28;20113;-55
2021/05/19 07:33:34;;;;;;;1.05;1.00;;;;;;;;;;5059162;28;20090;-55
2021/05/19 07:36:01;;;;;;;0.98;0.98;;;;;;;;;;5060674;28;20507;-55
2021/05/19 07:38:28;;;;;;;2.88;1.95;;;;;;;;;;5059636;28;20044;-52
2021/05/19 07:40:55;;;;;;;1.88;1.30;;;;;;;;;;5064018;28;20389;-53
2021/05/19 07:43:22;;;;;;;1.85;0.90;;;;;;;;;;5066475;28;20043;-55
2021/05/19 07:45:48;;;;;;;1.30;0.80;;;;;;;;;;5061543;28;20052;-54
2021/05/19 07:48:14;;;;;;;0.80;0.80;;;;;;;;;;5064913;28;20029;-56
2021/05/19 07:50:39;;;;;;;0.80;0.80;;;;;;;;;;5057396;28;20043;-55
2021/05/19 07:53:05;;;;;;;1.42;0.80;;;;;;;;;;5055639;28;20017;-53
2021/05/19 07:58:42;;;;;;;0.88;0.88;;;;;;;;;;5039460;28;20022;-54
2021/05/19 08:03:52;;;;;;;0.93;0.80;;;;;;;;;;5033930;28;20116;-55
2021/05/19 08:06:18;;;;;;;0.80;0.80;;;;;;;;;;5044903;28;20175;-55
2021/05/19 08:08:44;;;;;;;1.00;1.00;;;;;;;;;;5030382;28;20057;-55
2021/05/19 08:11:10;;;;;;;1.00;1.00;;;;;;;;;;5029749;28;20037;-55
2021/05/19 08:13:39;;;;;;;0.90;0.90;;;;;;;;;;5026990;28;20108;-54
2021/05/19 08:16:04;;;;;;;1.30;1.17;;;;;;;;;;5033999;28;20048;-53
2021/05/19 08:18:30;;;;;;;1.77;0.90;;;;;;;;;;5044794;28;20572;-54
2021/05/19 08:20:57;;;;;;;0.80;0.80;;;;;;;;;;5029713;28;20049;-56
2021/05/19 08:23:24;;;;;;;0.98;0.98;;;;;;;;;;5028477;28;20052;-55
2021/05/19 08:25:51;;;;;;;1.75;0.90;;;;;;;;;;5028104;28;20482;-56
2021/05/19 08:28:18;;;;;;;1.63;0.90;;;;;;;;;;5037170;28;20057;-55
2021/05/19 08:30:45;;;;;;;0.90;0.90;;;;;;;;;;5064844;28;20075;-54
2021/05/19 08:33:13;;;;;;;4.07;1.02;;;;;;;;;;5063789;28;20032;-55
2021/05/19 08:35:40;;;;;;;0.80;0.80;;;;;;;;;;5065307;28;20037;-55
2021/05/19 08:38:07;;;;;;;0.70;0.70;;;;;;;;;;5062310;28;20576;-53
2021/05/19 08:40:34;;;;;;;1.67;0.80;;;;;;;;;;5056049;28;20602;-55
2021/05/19 08:43:01;;;;;;;2.38;1.00;;;;;;;;;;5060354;28;20069;-54
2021/05/19 08:45:27;;;;;;;1.85;0.70;;;;;;;;;;5062737;28;20044;-52
2021/05/19 08:47:59;;;;;;;0.80;0.80;;;;;;;;;;5068465;28;20136;-55
2021/05/19 08:50:26;;;;;;;0.60;0.60;;;;;;;;;;5060358;28;20041;-54
2021/05/19 08:52:53;;;;;;;0.70;0.70;;;;;;;;;;5055423;28;20132;-53
2021/05/19 08:55:20;;;;;;;0.80;0.80;;;;;;;;;;5061894;28;20043;-55
2021/05/19 08:57:46;;;;;;;0.70;0.70;;;;;;;;;;5066681;28;20041;-54
2021/05/19 09:00:14;;;;;;;0.60;0.60;;;;;;;;;;5053405;28;20377;-54
2021/05/19 09:02:41;;;;;;;0.60;0.60;;;;;;;;;;5060734;28;20116;-55
2021/05/19 09:05:08;;;;;;;0.70;0.70;;;;;;;;;;5053510;28;20036;-54
2021/05/19 09:07:36;;;;;;;0.70;0.70;;;;;;;;;;5065455;28;20040;-53
2021/05/19 09:10:19;;;;;;;9.82;1.15;;;;;;;;;;5058569;28;20102;-55
2021/05/19 09:12:46;;;;;;;1.70;0.87;;;;;;;;;;5049338;28;20066;-55
2021/05/19 09:15:13;;;;;;;0.90;0.70;;;;;;;;;;5067289;28;20049;-53
2021/05/19 09:17:40;;;;;;;4.32;0.70;;;;;;;;;;5066682;28;20045;-53
2021/05/19 09:20:08;;;;;;;0.70;0.70;;;;;;;;;;5068355;28;20039;-53
2021/05/19 09:22:39;;;;;;;0.70;0.70;;;;;;;;;;5062209;28;20048;-55
2021/05/19 09:25:18;;;;;;;0.60;0.60;;;;;;;;;;5056868;28;20057;-55
2021/05/19 09:27:46;;;;;;;1.08;0.70;;;;;;;;;;5069534;28;20036;-53
2021/05/19 09:30:13;;;;;;;0.60;0.60;;;;;;;;;;5060887;28;20393;-56
2021/05/19 09:32:43;;;;;;;0.60;0.60;;;;;;;;;;5070807;28;20051;-56
2021/05/19 09:35:11;;;;;;;3.30;1.23;;;;;;;;;;5065985;28;20473;-55
2021/05/19 09:37:38;;;;;;;0.70;0.70;;;;;;;;;;5056134;28;20037;-55
2021/05/19 09:40:06;;;;;;;0.60;0.60;;;;;;;;;;5069633;28;20496;-56
2021/05/19 09:42:36;;;;;;;1.00;0.50;;;;;;;;;;5067076;28;20032;-55
2021/05/19 09:45:28;;;;;;;0.50;0.50;;;;;;;;;;5072481;28;20060;-56
2021/05/19 09:47:56;;;;;;;0.60;0.60;;;;;;;;;;5068965;28;20041;-56
2021/05/19 09:50:43;;;;;;;0.57;0.57;;;;;;;;;;5062722;28;20045;-56
2021/05/19 09:53:11;;;;;;;0.50;0.50;;;;;;;;;;5068536;28;20048;-55
2021/05/19 09:55:39;;;;;;;0.60;0.60;;;;;;;;;;5067167;28;20383;-56
2021/05/19 09:58:06;;;;;;;0.60;0.60;;;;;;;;;;5061866;28;20460;-55
2021/05/19 10:00:33;;;;;;;0.60;0.60;;;;;;;;;;5064465;28;20040;-55
2021/05/19 10:03:02;;;;;;;0.50;0.50;;;;;;;;;;5055450;28;20632;-56
2021/05/19 10:08:03;;;;;;;1.67;0.60;;;;;;;;;;5062589;28;20037;-55
2021/05/19 10:10:30;;;;;;;0.60;0.60;;;;;;;;;;5071520;28;20409;-56
2021/05/19 10:12:57;;;;;;;0.60;0.60;;;;;;;;;;5063258;28;20040;-57
2021/05/19 10:15:29;;;;;;;2.97;0.60;;;;;;;;;;5063111;28;20112;-56
2021/05/19 10:18:02;;;;;;;0.60;0.60;;;;;;;;;;5067105;28;20048;-55
2021/05/19 10:20:32;;;;;;;0.60;0.60;;;;;;;;;;5057414;28;21468;-56
2021/05/19 10:22:58;;;;;;;0.60;0.60;;;;;;;;;;5070511;28;20041;-56
2021/05/19 10:25:39;;;;;;;0.50;0.50;;;;;;;;;;5063063;28;20063;-56
2021/05/19 10:28:08;;;;;;;4.68;0.60;;;;;;;;;;5056409;28;20032;-56
2021/05/19 10:30:41;;;;;;;0.60;0.60;;;;;;;;;;5069412;28;20052;-56
2021/05/19 10:33:37;;;;;;;0.52;0.52;;;;;;;;;;5063383;28;20048;-55
2021/05/19 10:36:40;;;;;;;0.60;0.60;;;;;;;;;;5042188;28;20049;-55
2021/05/19 10:39:07;;;;;;;0.50;0.50;;;;;;;;;;4994791;28;20085;-57
2021/05/19 10:41:37;;;;;;;0.50;0.50;;;;;;;;;;4995529;28;20065;-55
2021/05/19 10:44:07;;;;;;;1.20;0.57;;;;;;;;;;5007135;28;20050;-56
2021/05/19 10:46:45;;;;;;;0.50;0.50;;;;;;;;;;4995745;28;20046;-56
2021/05/19 10:49:12;;;;;;;0.68;0.68;;;;;;;;;;5006396;28;20050;-53
2021/05/19 10:51:46;;;;;;;0.57;0.57;;;;;;;;;;5004789;28;20037;-56
2021/05/19 11:00:03;;;;;;;0.50;0.50;;;;;;;;;;4994155;28;20104;-55
2021/05/19 11:02:50;;;;;;;0.60;0.60;;;;;;;;;;4996102;28;20596;-53
2021/05/19 11:05:17;;;;;;;1.08;0.50;;;;;;;;;;4993748;28;20057;-56
2021/05/19 11:08:02;;;;;;;0.60;0.60;;;;;;;;;;4995013;28;20062;-56
2021/05/19 11:10:30;;;;;;;0.57;0.57;;;;;;;;;;4998165;28;20038;-55
2021/05/19 11:12:57;;;;;;;0.50;0.50;;;;;;;;;;5019585;28;20397;-56
2021/05/19 11:18:31;;;;;;;1.75;0.60;;;;;;;;;;5053899;28;20469;-55
2021/05/19 11:20:58;;;;;;;0.60;0.60;;;;;;;;;;5068777;28;20119;-56
2021/05/19 11:23:26;;;;;;;0.60;0.60;;;;;;;;;;5061041;28;20090;-56
2021/05/19 11:26:12;;;;;;;2.05;0.50;;;;;;;;;;5056872;28;20040;-56
2021/05/19 11:28:40;;;;;;;3.03;0.50;;;;;;;;;;5065855;28;20037;-55
2021/05/19 11:31:08;;;;;;;0.50;0.50;;;;;;;;;;5068530;28;20032;-56
2021/05/19 11:33:54;;;;;;;0.50;0.50;;;;;;;;;;5061645;28;20052;-56
2021/05/19 11:36:34;;;;;;;1.05;0.60;;;;;;;;;;5062044;28;20074;-54
2021/05/19 11:39:04;;;;;;;0.50;0.50;;;;;;;;;;5058200;28;20128;-54
2021/05/19 11:41:32;;;;;;;0.50;0.50;;;;;;;;;;5066054;28;20433;-52
2021/05/19 11:43:59;;;;;;;0.50;0.50;;;;;;;;;;5064789;28;20550;-53
2021/05/19 11:46:25;;;;;;;0.50;0.50;;;;;;;;;;5068769;28;20350;-53
2021/05/19 11:48:52;;;;;;;0.50;0.50;;;;;;;;;;5063845;28;20435;-53
2021/05/19 11:51:20;;;;;;;1.10;0.50;;;;;;;;;;5060931;28;20041;-52
2021/05/19 11:54:00;;;;;;;1.42;0.50;;;;;;;;;;5063152;28;20037;-52
2021/05/19 11:56:41;;;;;;;0.50;0.50;;;;;;;;;;5055269;28;20047;-53
2021/05/19 11:59:15;;;;;;;0.50;0.50;;;;;;;;;;5068334;28;20089;-54
2021/05/19 12:02:13;;;;;;;0.50;0.50;;;;;;;;;;5065592;28;20048;-54
2021/05/19 12:04:41;;;;;;;0.50;0.50;;;;;;;;;;5018280;28;20076;-53
2021/05/19 12:07:09;;;;;;;0.85;0.50;;;;;;;;;;5017352;28;20042;-54
2021/05/19 12:09:39;;;;;;;0.50;0.50;;;;;;;;;;5023253;28;20045;-51
2021/05/19 12:12:11;;;;;;;0.50;0.50;;;;;;;;;;5027254;28;20076;-53
2021/05/19 12:14:39;;;;;;;0.50;0.50;;;;;;;;;;5022703;28;20056;-53
2021/05/19 12:17:06;;;;;;;0.50;0.50;;;;;;;;;;5024447;28;20037;-53
2021/05/19 12:19:36;;;;;;;0.50;0.50;;;;;;;;;;5021261;28;20073;-53
2021/05/19 12:22:09;;;;;;;0.50;0.50;;;;;;;;;;5017344;28;20177;-52
2021/05/19 12:24:36;;;;;;;0.50;0.50;;;;;;;;;;5026651;28;20037;-49
2021/05/19 12:27:03;;;;;;;0.82;0.60;;;;;;;;;;5009813;28;20410;-53
2021/05/19 12:29:30;;;;;;;0.98;0.50;;;;;;;;;;5022511;28;20619;-51
2021/05/19 12:32:06;;;;;;;0.77;0.50;;;;;;;;;;5020674;28;20053;-52
2021/05/19 12:34:34;;;;;;;0.75;0.60;;;;;;;;;;5021778;28;20064;-44
2021/05/19 12:37:01;;;;;;;3.03;1.05;;;;;;;;;;5025064;28;20099;-45
2021/05/19 12:39:28;;;;;;;0.52;0.52;;;;;;;;;;5006375;28;20069;-44
2021/05/19 12:41:57;;;;;;;1.35;0.50;;;;;;;;;;5046484;28;20048;-44
2021/05/19 12:44:31;;;;;;;0.50;0.50;;;;;;;;;;5069407;28;20045;-43
2021/05/19 12:47:08;;;;;;;0.50;0.50;;;;;;;;;;5065507;28;20068;-44
2021/05/19 12:49:40;;;;;;;1.13;0.55;;;;;;;;;;5053198;28;20044;-44
2021/05/19 12:52:20;;;;;;;0.50;0.50;;;;;;;;;;5062596;28;20768;-43
2021/05/19 12:54:51;;;;;;;0.50;0.50;;;;;;;;;;5063128;28;21387;-43
2021/05/19 12:57:23;;;;;;;0.40;0.40;;;;;;;;;;5059834;28;20065;-43
2021/05/19 12:59:51;;;;;;;0.50;0.50;;;;;;;;;;5069065;28;20055;-43
2021/05/19 13:02:18;;;;;;;0.82;0.50;;;;;;;;;;5058047;28;20025;-44
2021/05/19 13:04:47;;;;;;;3.13;0.50;;;;;;;;;;5069312;28;20037;-43
2021/05/19 13:07:15;;;;;;;1.08;0.50;;;;;;;;;;5068460;28;20029;-44
2021/05/19 13:09:42;;;;;;;0.40;0.40;;;;;;;;;;5072542;28;20037;-43
2021/05/19 13:12:25;;;;;;;0.55;0.50;;;;;;;;;;5065811;28;20036;-43
2021/05/19 13:14:56;;;;;;;1.85;0.50;;;;;;;;;;5053180;28;20047;-43
2021/05/19 13:17:52;;;;;;;0.50;0.50;;;;;;;;;;5065180;28;20051;-43
2021/05/19 13:20:22;;;;;;;0.50;0.50;;;;;;;;;;5062557;28;20040;-45
2021/05/19 13:22:58;;;;;;;0.50;0.50;;;;;;;;;;5059762;28;20087;-43
2021/05/19 13:25:25;;;;;;;0.50;0.50;;;;;;;;;;5069174;28;20037;-44
2021/05/19 13:27:52;;;;;;;0.40;0.40;;;;;;;;;;5059801;28;20063;-43
2021/05/19 13:30:24;;;;;;;0.40;0.40;;;;;;;;;;5069356;28;20040;-42
2021/05/19 13:33:05;;;;;;;0.90;0.55;;;;;;;;;;5068963;28;20105;-44
2021/05/19 13:38:20;;;;;;;38.17;1.30;;;;;;;;;;5061863;28;20047;-44
2021/05/19 13:40:47;;;;;;;0.73;0.43;;;;;;;;;;5066148;28;20079;-43
2021/05/19 13:43:14;;;;;;;0.50;0.50;;;;;;;;;;5059193;28;20041;-46
2021/05/19 13:45:41;;;;;;;1.85;0.50;;;;;;;;;;5064094;28;20067;-45
2021/05/19 13:48:08;;;;;;;0.50;0.50;;;;;;;;;;5069781;28;20037;-43
2021/05/19 13:50:35;;;;;;;1.25;0.50;;;;;;;;;;5068290;28;20044;-43
2021/05/19 13:53:02;;;;;;;0.50;0.50;;;;;;;;;;5058478;28;20121;-44
2021/05/19 13:55:29;;;;;;;4.07;1.35;;;;;;;;;;5070838;28;20047;-43
2021/05/19 13:57:58;;;;;;;1.20;0.70;;;;;;;;;;5066501;28;20048;-44
2021/05/19 14:00:25;;;;;;;0.65;0.50;;;;;;;;;;5072291;28;20124;-46
2021/05/19 14:02:52;;;;;;;0.57;0.50;;;;;;;;;;5070917;28;20051;-43
2021/05/19 14:05:27;;;;;;;0.75;0.50;;;;;;;;;;5069140;28;20477;-44
2021/05/19 14:07:55;;;;;;;0.40;0.40;;;;;;;;;;5064983;28;20554;-43
2021/05/19 14:10:24;;;;;;;0.50;0.50;;;;;;;;;;5062363;28;20369;-43
2021/05/19 14:12:54;;;;;;;0.40;0.40;;;;;;;;;;5070292;28;20040;-45
2021/05/19 14:28:47;;;;;;;0.50;0.50;;;;;;;;;;5063176;28;20051;-44
2021/05/19 14:31:14;;;;;;;0.50;0.50;;;;;;;;;;5061750;28;20347;-43
2021/05/19 14:33:41;;;;;;;1.25;0.50;;;;;;;;;;5071045;28;20075;-44
2021/05/19 14:59:58;;;;;;;1.05;0.50;;;;;;;;;;5065736;28;20673;-43
2021/05/19 15:02:25;;;;;;;1.15;0.50;;;;;;;;;;5063478;28;20041;-42
2021/05/19 15:04:56;;;;;;;0.50;0.50;;;;;;;;;;5062906;28;20530;-46
2021/05/19 15:07:24;;;;;;;0.50;0.50;;;;;;;;;;5053475;28;20074;-43
2021/05/19 15:09:51;;;;;;;0.50;0.50;;;;;;;;;;5069104;28;20523;-45
2021/05/19 15:12:18;;;;;;;0.47;0.47;;;;;;;;;;5068276;28;20068;-42
2021/05/19 15:14:49;;;;;;;0.55;0.50;;;;;;;;;;5065468;28;20424;-42
2021/05/19 15:17:16;;;;;;;0.65;0.60;;;;;;;;;;5063435;28;20047;-42
2021/05/19 15:19:43;;;;;;;1.65;0.60;;;;;;;;;;5064207;28;20524;-43
2021/05/19 15:22:09;;;;;;;1.10;0.50;;;;;;;;;;5060377;28;20037;-43
2021/05/19 15:24:36;;;;;;;6.82;0.70;;;;;;;;;;5055776;28;20045;-46
2021/05/19 15:27:05;;;;;;;0.60;0.60;;;;;;;;;;5064119;28;20033;-43
2021/05/19 15:29:32;;;;;;;0.70;0.70;;;;;;;;;;5061989;28;20627;-44
2021/05/19 15:31:59;;;;;;;0.80;0.80;;;;;;;;;;5069941;28;20070;-44
2021/05/19 15:34:26;;;;;;;0.70;0.70;;;;;;;;;;5063797;28;20091;-44
2021/05/19 15:36:53;;;;;;;3.22;0.70;;;;;;;;;;5054608;28;20044;-44
2021/05/19 15:39:19;;;;;;;1.05;0.70;;;;;;;;;;5069162;28;20052;-45
2021/05/19 15:41:46;;;;;;;0.60;0.60;;;;;;;;;;5061692;28;20040;-45
2021/05/19 15:44:13;;;;;;;1.20;0.70;;;;;;;;;;5062233;28;20512;-44
2021/05/19 15:46:40;;;;;;;2.15;0.70;;;;;;;;;;5066926;28;20076;-42
2021/05/19 15:49:07;;;;;;;0.70;0.70;;;;;;;;;;5065595;28;20040;-42
2021/05/19 15:51:34;;;;;;;1.05;0.70;;;;;;;;;;5068914;28;20389;-44